Wichita Mid Continent Airport
KICT : now visible

Airfield :











YOU CAN JOIN US ON...

 
LOGIN :

Register | Disclaimer

   EN    FR    IT 

 









Legend :    VFR   Marginal VFR   IFR   Intensive IFR   Very Intensive IFR
Visi :
Ceiling :
>= 8 km
>= 3000ft
5 to 8 km
1000 to 3000 ft
1500m to 5 km
500 to 1000 ft
800 to 1500m
200 to 500 ft
< 800m
< 200 ft
Symbols :   Thunderstorms  Fog  Heavy snow  Heavy precipitations  Wind > 20 kt






- Airport Elevation : 1333 ft
- IATA code : ICT


KICT - Wichita Mid Continent

CURRENT METAR :
  • 232353Z 16011KT 10SM SCT055 SCT120 25/17 A2963 RMK AO2 SLP024 T02500167 10283 20239 55004

EXPIRED METARs :
  • 232253Z 17013G21KT 10SM FEW050 27/17 A2963 RMK AO2 SLP022 T02670172
  • 232153Z 16015KT 10SM FEW045 FEW090 28/17 A2963 RMK AO2 SLP023 T02780172

TAF KICT
Valid from the 24 at 00:00 until the 25 at 00:00 UTC


232331Z 2400/2424 16012G19KT P6SM FEW050 SCT200
FM240300 17013G20KT P6SM FEW050 SCT200 WS020/19040KT
FM240700 18015G22KT P6SM VCSH BKN060 WS020/21050KT
FM241300 19015G25KT P6SM BKN250
FM241600 24017G26KT P6SM SCT060
FM241700 27016G26KT P6SM BKN060
KZKC FIR / North America



MET'MAP, your aeronautical weather chart ! - Copyright ORBIFLY December 2007 - Disclaimer

ORBIFLY MET'MAP TEAM :

Programming & Development : Alexandra Zaïnal
Concept & original design : Baudouin d'Aumeries
Assistance for programming : Marc-Olivier Méhu
Technical & hardware support : Manuel Goepfert

Contact : metmap@orbifly.com




SOURCES & CREDITS :

   NOAA       Earth
Advisory